Coral Canyon GC
1925 N Canyon Greens Drive, Washington
Last Weather Update:03/29/2012 1:00:00 PM
Date
ETo
ETc
Rain
Irrigation
Req
Temp
Max
Temp
Min
Temp
Avg
Avg RH
Avg Wind
Avg Solar
inches
inches
incehs
inches
F
F
F
%
%
watts/m2
02/01/2012 0.05" 0.00" 0.00" 0.00" 60.1° 25.0° 42.5° 52.2% 0.1 MPH 127.3w/m2
02/02/2012 0.06" 0.00" 0.00" 0.00" 55.1° 28.6° 44.4° 50.6% 1.0 MPH 130.8w/m2
02/03/2012 0.06" 0.00" 0.00" 0.00" 54.1° 22.4° 37.8° 59.1% 0.2 MPH 159.4w/m2
02/04/2012 0.07" 0.00" 0.00" 0.00" 59.2° 23.9° 41.4° 52.7% 0.0 MPH 160.7w/m2
02/05/2012 0.07" 0.00" 0.00" 0.00" 57.7° 22.7° 42.0° 47.7% 0.5 MPH 164.0w/m2
02/06/2012 0.07" 0.00" 0.00" 0.00" 55.5° 22.6° 38.9° 49.7% 0.7 MPH 167.3w/m2
02/07/2012 0.09" 0.00" 0.00" 0.00" 57.0° 34.4° 46.5° 30.7% 3.0 MPH 117.8w/m2
02/08/2012 0.09" 0.00" 0.00" 0.00" 63.9° 35.8° 48.6° 36.3% 2.0 MPH 148.9w/m2
02/09/2012 0.07" 0.00" 0.00" 0.00" 65.0° 27.5° 44.9° 51.4% 1.0 MPH 160.5w/m2
02/10/2012 0.07" 0.00" 0.01" -0.01" 66.5° 28.0° 47.0° 50.2% 0.3 MPH 148.9w/m2
02/11/2012 0.09" 0.00" 0.00" 0.00" 70.3° 41.0° 54.3° 35.3% 2.1 MPH 141.4w/m2
02/12/2012 0.05" 0.00" 0.07" -0.06" 55.8° 37.5° 47.3° 71.2% 2.7 MPH 74.0w/m2
02/13/2012 0.03" 0.00" 0.56" -0.45" 51.1° 32.0° 41.0° 80.9% 2.2 MPH 46.5w/m2
02/14/2012 0.06" 0.00" 0.03" -0.02" 48.1° 32.0° 39.7° 80.2% 1.5 MPH 144.7w/m2
02/15/2012 0.02" 0.00" 0.23" -0.18" 44.8° 33.0° 39.8° 80.3% 2.5 MPH 24.2w/m2
02/16/2012 0.09" 0.00" 0.01" -0.01" 55.4° 30.0° 40.6° 73.6% 3.1 MPH 181.2w/m2
02/17/2012 0.07" 0.00" 0.00" 0.00" 53.4° 25.1° 37.5° 73.8% 0.7 MPH 186.0w/m2
02/18/2012 0.07" 0.00" 0.00" 0.00" 55.5° 26.3° 40.8° 64.9% 0.6 MPH 173.6w/m2
02/19/2012 0.06" 0.00" 0.32" -0.26" 49.2° 27.0° 41.1° 68.8% 1.0 MPH 146.5w/m2
02/20/2012 0.07" 0.00" 0.00" 0.00" 52.2° 25.5° 36.9° 58.7% 0.4 MPH 193.2w/m2
02/21/2012 0.07" 0.00" 0.00" 0.00" 55.9° 23.9° 39.4° 63.2% 0.1 MPH 173.7w/m2
02/22/2012 0.07" 0.00" 0.00" 0.00" 60.8° 31.2° 44.3° 65.0% 0.1 MPH 154.0w/m2
02/23/2012 0.09" 0.00" 0.00" 0.00" 58.4° 31.8° 45.8° 52.6% 0.1 MPH 191.9w/m2
02/24/2012 0.09" 0.00" 0.01" -0.01" 63.0° 28.5° 44.4° 41.0% 0.1 MPH 202.4w/m2
02/25/2012 0.10" 0.00" 0.00" 0.00" 66.5° 29.5° 47.2° 35.1% 0.9 MPH 208.7w/m2
02/26/2012 0.09" 0.00" 0.00" 0.00" 59.1° 31.8° 45.8° 26.1% 1.5 MPH 196.6w/m2
02/27/2012 0.07" 0.00" 0.00" 0.00" 61.6° 35.1° 47.6° 33.5% 0.5 MPH 130.1w/m2
02/28/2012 0.04" 0.00" 0.15" -0.12" 48.6° 32.7° 41.2° 73.3% 1.0 MPH 78.9w/m2
02/29/2012 0.08" 0.00" 0.00" 0.00" 55.5° 29.2° 42.9° 57.4% 0.5 MPH 182.6w/m2
Totals: 2.01" 0.00" 1.39" -1.11" 70.3° 22.4° 43.2° 55.7% 1.0 MPH 148.8w/m2